AirNav   ATP
 
 945 users online  

12FD Osceola Regional Hospital Heliport
Kissimmee, Florida, USA

GOING TO KISSIMMEE?


FAA INFORMATION EFFECTIVE 20 JULY 2017

Location

FAA Identifier: 12FD
Lat/Long: 28-17-53.5500N / 081-24-38.3000W
28-17.892500N / 081-24.638333W
28.2982083 / -81.4106389
(estimated)
Elevation: 59 ft. / 18 m (estimated)
Variation: 03W (1985)
From city: 4 miles W of KISSIMMEE, FL
Time zone: UTC -4 (UTC -5 during Standard Time)
Zip code: 34741

Heliport Operations

Heliport use: Private use, MEDICAL USE.
Activation date: 06/1991
Control tower: no
ARTCC: MIAMI CENTER
FSS: SAINT PETERSBURG FLIGHT SERVICE STATION
Attendance: CONTINUOUS
Wind indicator: lighted
Segmented circle: no

Heliport Communications

WX AWOS-3PT at ISM (1.5 nm W): 128.775 (407-847-0533)
WX ASOS at MCO (10 nm NE): PHONE 407-855-5235
WX ASOS at ORL (15 nm N): PHONE 407-658-6753

Nearby radio navigation aids

VOR radial/distance  VOR name  Freq  Var
ORLr195/15.2ORLANDO VORTAC112.2000E
LALr059/37.0LAKELAND VORTAC116.0001E

 
NDB name  Hdg/Dist  Freq  Var  ID
SANFORD202/30.540805WSFB ... ..-. -...
LEESBURG150/37.633504WLEE .-.. . .
SATELLITE294/39.425706WSQT ... --.- -

Heliport Services

Runway Information

Helipad H1

Dimensions: 40 x 40 ft. / 12 x 12 m
Surface: concrete
Runway edge markings: REFLECTIVE MARKERS.
Latitude: 28-17.892500N
Longitude: 081-24.638333W
Elevation: 59.0 ft.
Traffic pattern: leftleft

Helipad H2

Dimensions: 39 x 39 ft. / 12 x 12 m
Surface: asphalt/concrete
Latitude: 28-17.932500N
Longitude: 081-24.591167W
Elevation: 59.0 ft.
Traffic pattern: leftleft

Heliport Ownership and Management from official FAA records

Ownership: Privately-owned
Owner: OSCEOLA REGIONAL HOSPITAL
700 WEST OAK STREET
KISSIMMEE, FL 34742
Phone (407) 846-2266
Manager: ADMINISTRATOR
700 WEST OAK STREET
KISSIMMEE, FL 34742
Phone (407) 846-2266

Heliport Operational Statistics

Aircraft based on the field: 1
Helicopters: 1
    

Instrument Procedures

There are no published instrument procedures at 12FD.

Some nearby airports with instrument procedures:

KISM - Kissimmee Gateway Airport (1 nm W)
KMCO - Orlando International Airport (10 nm NE)
KORL - Executive Airport (15 nm N)
KGIF - Winter Haven's Gilbert Airport (23 nm SW)
X04 - Orlando Apopka Airport (26 nm N)
 
Loc | Ops | Rwys | IFR | FBO | Links
Com | Nav | Svcs | Stats | Notes


 
Area around 12FD (Osceola Regional Hospital Heliport)
 
Road maps at: MapQuest Bing Google
 
Aerial photo
No photo
 
Sectional chart

 
Airport distance calculator
Flying to Osceola Regional Hospital Heliport? Find the distance to fly.

From to 12FD

Sunrise and sunset
Times for 25-Jul-2017
 Local
(UTC-4)
 Zulu
(UTC)
Morning civil twilight06:1910:19
Sunrise06:4510:45
Sunset20:1900:19
Evening civil twilight20:4500:45

Current date and time
Zulu (UTC)  25-Jul-2017 12:22:51
Local (UTC-4)  25-Jul-2017 08:22:51
 
METAR
KISM 251156Z 00000KT 10SM SCT049 26/24 A3015 RMK AO2 SLP210 T02560244 10261 20244 53019
KMCO 
8nm NE 
251153Z 26003KT 10SM FEW050 FEW200 BKN300 26/26 A3014 RMK AO2 SLP203 T02560256 10256 20233 53018
KORL 
16nm N 
251153Z 00000KT 10SM CLR 26/26 A3014
TAF
KISM 251140Z 2512/2612 00000KT P6SM SCT300 FM251400 27004KT P6SM FEW030 SCT250 FM252000 21006KT P6SM SCT060 SCT300 FM260000 VRB04KT P6SM SCT300
KMCO 
8nm NE 
251140Z 2512/2612 VRB03KT P6SM FEW200 BKN300 FM251400 VRB05KT P6SM FEW030 SCT300 FM251900 22006KT P6SM SCT060 SCT300 FM260000 VRB04KT P6SM SCT300
NOTAMs
Click for the latest NOTAMs
NOTAMs are issued by the DoD/FAA and will open in a separate window not controlled by AirNav.

 

 
 

Would you like to see your business listed on this page?

 If your business provides an interesting product or service to pilots, flight crews, aircraft, or users of the Osceola Regional Hospital Heliport, you should consider listing it here.  To start the listing process, click on the button below
 
Add a business
 

Other Pages about Osceola Regional Hospital Heliport

Update a link
 
Copyright © AirNav, LLC. All rights reserved. Privacy Policy  Contact